SiktMolnbas
>≥ 10km≥ 10km ≥ 2000ft≥ 2000ft
< 10km< 10km < 2000ft< 2000ft
< 8km< 8km < 1500ft< 1500ft
< 5km< 5km < 1000ft< 1000ft
< 3km< 3km < 500ft< 500ft

Nytt 18 jan 2017:

Nytt 17 jan 2017:

ESNQ (17:20 UTC)

Kiruna flygplats

METAR

ESNQ 281720Z 25004KT CAVOK 02/M08 Q1026=

TAF

ESNQ 281730Z 2818/2822 23005KT CAVOK=

ESNG (17:20 UTC)

Gällivare (Kavaheden), Lapland Airport

METAR

ESNG 281720Z 13006KT CAVOK 03/M08 Q1026=

TAF

ESNG 281730Z 2818/2821 13005KT CAVOK=

ESPA (17:20 UTC)

Luleå Airport (Kallax)

METAR

ESPA 281720Z 12003KT CAVOK 04/M07 Q1028=

TAF

ESPA 281730Z 2818/2823 10003KT CAVOK=

ESNL (17:20 UTC)

Lycksele flygplats

METAR

ESNL 281720Z AUTO 06007KT 9999 SCT049/// 04/M09 Q1026=

TAF

Ingen TAF hittades.

ESNU (17:20 UTC)

Umeå City Airport

METAR

ESNU 281720Z 06009KT CAVOK 02/M04 Q1027 RWY 14 DAMP 0-10 PCT FCT 0.60=

TAF

ESNU 281730Z 2818/2903 06009KT CAVOK=

ESNO (17:20 UTC)

Örnsköldsvik flygplats

METAR

ESNO 281720Z 10008KT CAVOK 02/M04 Q1026=

TAF

ESNO 281730Z 2818/2822 10008KT CAVOK=

ESNK (17:20 UTC)

Kramfors-Sollefteå flygplats

METAR

ESNK 281720Z 11009KT CAVOK 04/M04 Q1026=

TAF

ESNK 281730Z 2818/2820 11008KT CAVOK=

ESNN (17:20 UTC)

Sundsvall-Härnösands flygplats (Midlanda)

METAR

ESNN 281720Z 09007KT CAVOK 04/M04 Q1026=

TAF

ESNN 281730Z 2818/2821 09008KT CAVOK=

ESNZ (17:20 UTC)

Åre Östersund Airport (Frösön)

METAR

ESNZ 281720Z 13008KT CAVOK 03/M03 Q1023=

TAF

ESNZ 281730Z 2818/2822 12008KT CAVOK=

ESNS (17:20 UTC)

Skellefteå flygplats

METAR

ESNS 281720Z 05006KT CAVOK 02/M05 Q1028=

TAF

ESNS 281730Z 2818/2822 06008KT CAVOK=

ESGT (17:20 UTC)

Trollhättan-Vänersborgs flygplats (Malöga flygplats)

METAR

RABR

ESGT 281720Z 09014KT 9000 -RA BR SCT018 BKN025 06/04 Q1015=

TAF

RA

ESGT 281730Z 2818/2820 09012KT 9999 -RADZ BKN015 TEMPO 2818/2820 RA BKN012=

ESGG (17:20 UTC)

Göteborg-Landvetter flygplats

METAR

DZ

ESGG 281720Z 12005KT 9999 DZ FEW010 BKN020 BKN027 05/04 Q1013=

TAF

RA

ESGG 281730Z 2818/2918 11008KT 9999 -RA BKN020 TEMPO 2818/2820 RADZ BKN009 BECMG 2905/2907 04010KT=

ESMT (17:20 UTC)

Halmstads flygplats

METAR

ESMT 281720Z 13014G26KT 100V160 9999 FEW025 BKN054 09/M00 Q1013=

TAF

ESMT 281655Z 2818/2821 12008KT 9999 BKN020=

ESTA (17:20 UTC)

Ängelholm-Helsingborg flygplats

METAR

ESTA 281720Z 10013KT CAVOK 09/01 Q1013=

TAF

ESTA 281655Z 2818/2822 12012KT 9999 BKN030=

ESTL (17:20 UTC)

Ljungbyheds flygplats

METAR

ESTL 281720Z AUTO 12011KT 9999NDV FEW038/// 09/00 Q1013=

TAF

Ingen TAF hittades.

ESMS (17:20 UTC)

Malmö Airport

METAR

ESMS 281720Z 12010KT CAVOK 08/01 Q1013=

TAF

SHRABRCBTCU

ESMS 281657Z 2818/2918 17012KT 9999 SCT020 BECMG 2819/2822 10010KT TEMPO 2902/2910 4000 BR -SHRA BKN008 SCT020TCU TEMPO 2910/2918 SHRA SCT015CB=

ESMK (17:20 UTC)

Kristianstad Airport

METAR

ESMK 281720Z 13008KT CAVOK 07/04 Q1015=

TAF

ESMK 281354Z 2815/2819 11010KT 9999 SCT030=

ESDF (17:20 UTC)

Ronneby flygplats

METAR

ESDF 281720Z 11010KT CAVOK 08/M00 Q1015=

TAF

Ingen TAF hittades.

ESMQ (17:20 UTC)

Kalmar Airport

METAR

ESMQ 281720Z 08007KT CAVOK 07/M02 Q1017=

TAF

ESMQ 281730Z 2818/2822 08008KT CAVOK=

ESMX (17:20 UTC)

Växjö, Smaland Airport

METAR

ESMX 281720Z 13005KT 080V170 CAVOK 08/M02 Q1015=

TAF

ESMX 281730Z 2818/2821 14008KT CAVOK=

ESGJ (17:20 UTC)

Jönköping Airport

METAR

CB

ESGJ 281720Z 12010KT 080V150 9999 SCT015CB BKN042 07/M00 Q1015=

TAF

ESGJ 281730Z 2818/2822 10010KT 9999 SCT040=

ESSA (17:20 UTC)

Stockholm-Arlanda flygplats

METAR

ESSA 281720Z 06014KT 9999 FEW031 06/M01 Q1021 RWY 01L DAMP 26-50 PCT BA GOOD RWY 08 DAMP 26-50 PCT BA GOOD RWY 01R DAMP 26-50 PCT BA GOOD NOSIG=

TAF

ESSA RRA 281730Z 2818/2918 04012KT CAVOK=

ESSB (17:20 UTC)

Stockholm-Bromma flygplats

METAR

ESSB 281720Z 06010KT 9999 FEW016 04/M00 Q1021=

TAF

ESSB RRA 281730Z 2818/2820 07008KT 9999 SCT017 PROB40 2818/2820 BKN006=

ESKN (17:20 UTC)

Stockholm-Skavsta flygplats

METAR

ESKN 281720Z 08011KT 9999 FEW027 05/00 Q1020=

TAF

BR

ESKN 281730Z 2818/2918 10012KT 9999 SCT025 PROB40 2818/2823 2000 BR BKN003 BECMG 2819/2821 04006KT BECMG 2916/2918 34014KT=

ESSP (17:20 UTC)

Norrköping flygplats

METAR

ESSP 281720Z 10013KT 9999 BKN015 05/01 Q1020=

TAF

BR

ESSP 281730Z 2818/2821 09015KT 9999 SCT015 PROB40 2818/2821 2000 BR BKN004=

ESSL (17:20 UTC)

Linköping - SAAB Flygplats

METAR

ESSL 281720Z 10013KT 9999 FEW025 06/01 Q1018=

TAF

BR

ESSL 281730Z 2818/2822 09014KT 9999 FEW025 PROB40 2818/2822 2000 BR BKN003=

ESSV (17:20 UTC)

Visby flygplats

METAR

ESSV 281720Z 09009KT CAVOK 05/01 Q1018=

TAF

ESSV 281730Z 2818/2824 09010KT CAVOK PROB40 2818/2824 BKN004=

ESOW (17:20 UTC)

Stockholm-Västerås flygplats

METAR

ESOW 281720Z 10010KT 070V140 9999 FEW041 08/M02 Q1021=

TAF

Ingen TAF hittades.

ESOE (17:20 UTC)

Örebro flygplats

METAR

ESOE 281720Z 08012KT 9999 FEW047 09/M00 Q1018=

TAF

ESOE 281730Z 2818/2821 09015KT 9999 SCT050=

ESOK (17:20 UTC)

Karlstad Airport

METAR

ESOK 281720Z 06013KT CAVOK 08/M00 Q1017=

TAF

ESOK 281730Z 2818/2821 08014KT CAVOK=

ESSD (17:20 UTC)

Borlänge, Dala Airport

METAR

ESSD 281720Z AUTO 05011KT 9999 FEW031/// 04/M03 Q1022=

TAF

Ingen TAF hittades.

ESGR (17:20 UTC)

Skövde flygplats

METAR

ESGR 281720Z AUTO 09011KT 060V120 9999 BKN066/// 08/M01 Q1016=

TAF

Ingen TAF hittades.

ESIB (17:20 UTC)

Såtenäs

METAR

RA

ESIB 281720Z AUTO 11009KT 9999 -RA VV034/// 06/04 Q1015=

TAF

Ingen TAF hittades.

ESNV (17:20 UTC)

Vilhelmina flygplats

METAR

ESNV 281720Z 09006KT CAVOK 03/01 Q1025=

TAF

Ingen TAF hittades.

ESST (17:20 UTC)

Torsby flygplats (Fryklanda)

METAR

ESST 281720Z 07012KT 040V100 9999 FEW064 OVC084 07/M01 Q1019=

TAF

Ingen TAF hittades.

ESUT (17:20 UTC)

Hemavans flygplats

METAR

ESUT 281720Z AUTO 08010KT 9999 NCD 02/M09 Q1024=

TAF

Ingen TAF hittades.

ESNX (17:20 UTC)

Arvidsjaur flygplats

METAR

ESNX 281720Z AUTO 10005KT 050V130 9999 FEW054/// 02/M09 Q1025=

TAF

ESNX 281730Z 2818/2820 11005KT CAVOK=

ESIA (17:20 UTC)

Karlsborg

METAR

ESIA 281720Z AUTO 09016KT 9999 NCD 06/00 Q1017=

TAF

Ingen TAF hittades.

ESUD (17:20 UTC)

Storuman

METAR

ESUD 281720Z AUTO 11004KT 070V150 9999 NCD 04/M09 Q1025=

TAF

Ingen TAF hittades.

ESUP (17:20 UTC)

Pajala

METAR

ESUP 281720Z 00000KT CAVOK 04/M10 Q1027=

TAF

Ingen TAF hittades.

ESPE (17:20 UTC)

Vidsel

METAR

ESPE 281720Z AUTO 12007KT 9999 FEW060/// 04/M08 Q1027=

TAF

Ingen TAF hittades.

ESCM (17:20 UTC)

Uppsala

METAR

ESCM 281720Z AUTO 07012KT 9999 NCD 05/M02 Q1022=

TAF

Ingen TAF hittades.

ESKM (17:20 UTC)

Mora/Siljan

METAR

ESKM 281720Z AUTO 05010KT 9999 FEW033/// SCT041/// 04/M03 Q1022=

TAF

Ingen TAF hittades.

EKRN (17:20 UTC)

Bornholm Airport

METAR

EKRN 281720Z AUTO 08010KT 9999NDV NCD 08/02 Q1014=

TAF

EKRN 281425Z 2815/2821 13010KT 9999 FEW040=

EFIV (17:20 UTC)

Ivalo Airport

METAR

EFIV 281720Z AUTO 32004KT 290V350 CAVOK 04/M06 Q1027=

TAF

Ingen TAF hittades.

EFKT (17:20 UTC)

Kittilä Airport

METAR

EFKT 281720Z AUTO 00000KT CAVOK 04/M09 Q1028=

TAF

EFKT 281422Z 2815/2824 24003KT CAVOK=

EFRO (17:20 UTC)

Rovaniemi Airport

METAR

EFRO 281720Z AUTO 07004KT 040V110 CAVOK 03/M09 Q1028=

TAF

EFRO 281422Z 2815/2915 06008KT CAVOK=

EFKE (17:20 UTC)

Kemi-Tornio Airport

METAR

EFKE 281720Z 08006KT CAVOK 04/M08 Q1028=

TAF

EFKE 281422Z 2815/2821 08008KT CAVOK=

EFKS (17:20 UTC)

Kuusamo Airport

METAR

EFKS 281720Z AUTO 10003KT CAVOK 01/M06 Q1027=

TAF

Ingen TAF hittades.

EFOU (17:20 UTC)

Oulu Airport

METAR

EFOU 281720Z AUTO 09004KT 060V120 9999 BKN066/// 04/M08 Q1027 RWY 12 DAMP 51-100 PCT BA GOOD=

TAF

EFOU 281422Z 2815/2915 08008KT 9999 BKN040=

EFKI (17:20 UTC)

Kajaani Airport

METAR

SHRACB

EFKI 281720Z 12007KT 100V170 9999 VCSH SCT044CB BKN056 03/M04 Q1027=

TAF

SHRASNCB

EFKI 281437Z 2815/2821 36006KT 9999 BKN045 TEMPO 2815/2817 7000 -SHRASN FEW045CB=

EFKK (17:20 UTC)

Kokkola-Pietarsaari/Kruunupyy Airport

METAR

EFKK 281720Z 09004KT 9999 FEW040 BKN050 04/M03 Q1026=

TAF

EFKK 281422Z 2815/2823 02008KT 9999 FEW030=

EFVA (17:20 UTC)

Vaasa Airport

METAR

EFVA 281720Z AUTO 36007KT CAVOK 03/M02 Q1026=

TAF

EFVA 281422Z 2815/2915 02008KT 9999 FEW040 BECMG 2909/2911 08010KT=

EFKU (17:20 UTC)

Kuopio Airport

METAR

EFKU 281720Z AUTO 01001KT CAVOK 03/M02 Q1026=

TAF

SHRASNCB

EFKU 281437Z 2815/2915 08002KT 9999 OVC048 PROB40 2815/2818 7000 -SHRASN BKN025CB BECMG 2906/2909 09010KT PROB40 TEMPO 2909/2915 08018G29KT=

EFJY (17:20 UTC)

Jyväskylä Airport

METAR

EFJY 281720Z AUTO 05008KT 9999 OVC048 03/M02 Q1025=

TAF

EFJY 281427Z 2815/2915 04005KT CAVOK TEMPO 2906/2915 09015G30KT=

EFTP (17:20 UTC)

Tampere-Pirkkala Airport

METAR

EFTP 281720Z AUTO 03007KT CAVOK 05/M03 Q1024=

TAF

EFTP 281427Z 2815/2915 03005KT 9999 SCT040 TEMPO 2907/2915 06015G25KT=

EFPO (17:20 UTC)

Pori Airport

METAR

EFPO 281720Z AUTO 06007KT 010V090 9999 FEW047/// 06/M05 Q1023=

TAF

EFPO 281427Z 2815/2821 04007KT CAVOK=

EFTU (17:20 UTC)

Turku Airport

METAR

EFTU 281720Z AUTO 05008KT 020V080 9999 SCT076/// 09/M05 Q1021=

TAF

RA

EFTU 281427Z 2815/2915 02007KT CAVOK BECMG 2906/2908 04014KT TEMPO 2908/2912 06016G26KT TEMPO 2912/2915 06016G26KT 5000 -RASN=

EFHK (17:20 UTC)

Helsinki-Vantaa Airport

METAR

EFHK 281720Z 10006KT CAVOK 07/M06 Q1022 NOSIG=

TAF

Ingen TAF hittades.

EFMA (17:20 UTC)

Mariehamn Airport

METAR

EFMA 281720Z 36009KT CAVOK 05/M01 Q1022=

TAF

EFMA 281427Z 2815/2824 06008KT CAVOK=

EKSB (17:20 UTC)

Sønderborg Airport

METAR

TCU

EKSB 281720Z 26003KT 9999 FEW030TCU BKN070 08/04 Q1011=

TAF

SHRACB

EKSB 281453Z 2815/2822 24008KT 9999 SCT030 TEMPO 2815/2822 SHRA SCT020CB=

EKSP (17:20 UTC)

Vojens Airport

METAR

EKSP 281720Z 26009KT 9999 FEW035 SCT050 BKN080 06/02 Q1011=

TAF

SHRABRTCU

EKSP 281728Z 2818/2918 24010KT 9999 BKN030 PROB40 2818/2822 -SHRA SCT020TCU TEMPO 2822/2908 2500 BR SHRA BKN012 SCT020TCU BECMG 2908/2910 06006KT TEMPO 2908/2918 -SHRA SCT025TCU=

EKEB (17:20 UTC)

Esbjerg Airport

METAR

EKEB 281720Z AUTO 26011KT 9999NDV FEW030/// 06/01 Q1011=

TAF

SHRACB

EKEB 281723Z 2818/2822 26010KT 9999 SCT025 TEMPO 2818/2822 SHRA BKN012 SCT020CB=

EKYT (17:31 UTC)

Aalborg Airport

METAR

EKYT 281731Z 02002KT 9999 FEW042 SCT090 BKN095 08/05 Q1010=

TAF

SHRACB

EKYT 281728Z 2818/2918 15010KT 9999 BKN025 TEMPO 2818/2822 6000 SHRA SCT025CB TEMPO 2822/2906 5000 SHRA BKN012CB BECMG 2900/2903 08012KT=

EKKA (17:20 UTC)

Karup Airport

METAR

EKKA 281720Z AUTO 26007KT 9999NDV BKN032/// 08/02 Q1010=

TAF

SHRABRTCU

EKKA 281728Z 2818/2918 23010KT 9999 BKN025 PROB40 2818/2819 -SHRA SCT020TCU BECMG 2819/2822 VRB05KT TEMPO 2821/2909 2500 -SHRA BR BKN005 SCT025TCU BECMG 2906/2909 07008KT=

EKBI (17:32 UTC)

Billund Airport

METAR

SHRACB

EKBI 281732Z 25008KT 9999 -SHRA FEW035CB BKN059 07/01 Q1011=

TAF

SHRABRCBTCU

EKBI 281657Z 2818/2918 24010KT 9999 SCT030 TEMPO 2818/2824 -SHRA SCT020TCU BECMG 2819/2822 VRB05KT TEMPO 2900/2909 2000 -SHRA BR BKN006 SCT015CB TEMPO 2909/2918 -SHRA SCT020TCU=

EKVD (17:20 UTC)

Kolding Airport

METAR

EKVD 281720Z AUTO 26010KT //// ///////// 07/01 Q1011=

TAF

Ingen TAF hittades.

EKOD (16:50 UTC)

Odense Airport

METAR

CB

EKOD 281650Z 19007KT 160V220 9999 FEW023CB SCT043 BKN080 08/05 Q1011=

TAF

SHRACB

EKOD 281151Z 2812/2818 21010KT 9999 SCT030 TEMPO 2812/2818 SHRA BKN012 SCT020CB=

EKCH (17:20 UTC)

Copenhagen Airport, Kastrup

METAR

EKCH 281720Z 15011KT CAVOK 09/02 Q1013 NOSIG=

TAF

SHRABRCB

EKCH 281657Z 2818/2918 15010KT 9999 BKN020 TEMPO 2818/2824 SHRA SCT020CB BECMG 2900/2903 09010KT TEMPO 2900/2910 3000 SHRA BR BKN008 SCT015CB TEMPO 2910/2918 SHRA SCT020CB=

EKRK (17:20 UTC)

Copenhagen Airport, Roskilde

METAR

EKRK 281720Z AUTO 14012KT 9999NDV OVC042/// 07/03 Q1012=

TAF

SHRABRCB

EKRK 281723Z 2818/2903 12008KT 9999 BKN020 TEMPO 2818/2821 SHRA SCT020CB TEMPO 2821/2903 3000 SHRA BR BKN008 SCT015CB=

ENRY (17:20 UTC)

Moss flygplats, Rygge

METAR

DZ

ENRY 281720Z 07011KT 9999 -DZ BKN025 05/03 Q1016=

TAF

SHRABRCB

ENRY 281100Z 2812/2912 03010KT 8000 -RA FEW007 BKN015 TEMPO 2812/2818 07018G28KT 4000 SHRA BR BKN004 SCT020CB BECMG 2821/2824 SCT018=

ENGM (17:20 UTC)

Oslo flygplats, Gardermoen

METAR

ENGM 281720Z 05010KT 9999 OVC043 05/M02 Q1017 NOSIG=

TAF

RA

ENGM 281100Z 2812/2912 03010KT 9999 -RASN FEW010 BKN015 TEMPO 2812/2822 07015G25KT 2000 SNRA VV008 BECMG 2822/2901 SCT020=

ENTO (17:20 UTC)

Sandefjord flygplats, Torp

METAR

DZ

ENTO 281720Z 07011G22KT 040V120 9999 -DZ BKN009 OVC010 04/04 Q1015=

TAF

SHRASNBRCB

ENTO 281100Z 2812/2912 03012KT 6000 -RA FEW005 BKN015 TEMPO 2812/2821 06018G28KT TEMPO 2812/2902 2000 SHRASN BR BKN004 SCT020CB BECMG 2902/2905 SCT020=

ENCN (17:20 UTC)

Kristiansand flygplats, Kjevik

METAR

RA

ENCN 281720Z 04017KT 4800 -RASN FEW009 BKN016 03/02 Q1011 RERASN=

TAF

SHRACB

ENCN 281700Z 2818/2821 03015KT 9000 -RASN SCT006 BKN015 TEMPO 2818/2821 4000 SHRA BKN008 FEW020CB=

ENZV (17:20 UTC)

Stavanger-Sola flygplats

METAR

ENZV 281720Z 04006KT 360V070 9999 FEW025 BKN051 08/M01 Q1012 NOSIG=

TAF

ENZV 281100Z 2812/2912 02012KT 9999 FEW020 SCT070 TEMPO 2900/2903 12012KT=

ENHD (17:20 UTC)

Haugesund flygplats, Karmøy

METAR

ENHD 281720Z 04007KT 010V180 9999 FEW025 BKN074 09/M02 Q1013=

TAF

ENHD 281700Z 2818/2821 08008KT 9999 FEW030 SCT050=

ENBR (17:20 UTC)

Bergen flygplats, Flesland

METAR

ENBR 281720Z 09009KT 040V120 9999 FEW035 SCT070 09/M04 Q1014 NOSIG RMK WIND 1200FT 09008G20KT=

TAF

ENBR 281100Z 2812/2912 08012KT 9999 FEW030 BECMG 2909/2912 16012KT=

ENBL (17:20 UTC)

Førde flygplats, Bringeland

METAR

ENBL 281720Z 11010KT 9999 FEW050 BKN11 07/M06 Q1015=

TAF

Ingen TAF hittades.

ENOV (16:50 UTC)

Ørsta-Volda flygplats, Hovden

METAR

ENOV 281650Z 08009KT CAVOK 10/M07 Q1016 RMK WIND 2175FT 10011KT=

TAF

Ingen TAF hittades.

ENML (17:20 UTC)

Molde flygplats, Årø

METAR

ENML 281720Z 10016KT CAVOK 09/M02 Q1018=

TAF

ENML 281700Z 2818/2822 09015KT CAVOK=

ENKB (17:20 UTC)

Kristiansund flygplats, Kvernberget

METAR

ENKB 281720Z 11008KT 080V150 CAVOK 08/M05 Q1019 RMK WIND 745FT 11014KT=

TAF

ENKB 281700Z 2818/2821 12012KT CAVOK=

ENRO (17:20 UTC)

Røros flygplats

METAR

ENRO 281720Z 17008KT 9999 BKN047 02/M06 Q1020=

TAF

ENRO AAY 281708Z 2817/2818 16010KT 9999 BKN040=

ENVA (17:20 UTC)

Trondheim flygplats, Værnes

METAR

ENVA 281720Z 11012KT 9999 FEW050 08/M05 Q1022 NOSIG RMK WIND 670FT 13014KT=

TAF

ENVA 281100Z 2812/2912 13015KT 9999 FEW030 TEMPO 2818/2906 VRB05KT=

ENOL (17:20 UTC)

Ørland flygplats

METAR

ENOL 281720Z 12012KT 9999 FEW040 08/M04 Q1021 NOSIG=

TAF

ENOL 281100Z 2812/2912 12010KT 9999 FEW020 BECMG 2900/2903 13020KT=

ENRM (16:50 UTC)

Rørvik flygplats, Ryum

METAR

ENRM 281650Z 09008KT CAVOK 08/M05 Q1024=

TAF

ENRM 281400Z 2815/2818 10010KT CAVOK=

ENBN (17:20 UTC)

Brønnøysund flygplats, Brønnøy

METAR

ENBN 281720Z 11011KT CAVOK 06/M07 Q1025=

TAF

ENBN 281400Z 2815/2819 09008KT CAVOK=

ENBO (17:20 UTC)

Bodö flygplats

METAR

ENBO 281720Z 08013KT CAVOK 06/M06 Q1027 NOSIG=

TAF

ENBO 281100Z 2812/2912 09015KT CAVOK=

ENSH (16:50 UTC)

Svolvær flygplats, Helle

METAR

ENSH 281650Z 19004KT CAVOK 05/M06 Q1027=

TAF

ENSH RRA 281400Z 2815/2820 VRB08KT CAVOK=

ENAN (17:20 UTC)

Andøya flygplats

METAR

ENAN 281720Z 13006KT CAVOK 05/M03 Q1028=

TAF

ENAN 281100Z 2812/2912 17008KT 9999 FEW020=

ENEV (17:20 UTC)

Harstad-Narvik flygplats

METAR

ENEV 281720Z 13007KT 110V170 CAVOK 06/M09 Q1028 RMK WIND 1400FT 13006KT=

TAF

ENEV 281700Z 2818/2821 15008KT CAVOK=

ENDU (16:50 UTC)

Bardufoss flygplats

METAR

ENDU 281650Z VRB03KT CAVOK 06/M10 Q1027 NOSIG RMK WIND 1100FT 27004KT WIND 2200FT 24003KT=

TAF

ENDU 281100Z 2812/2912 VRB03KT CAVOK=

ENTC (17:20 UTC)

Tromsø flygplats

METAR

ENTC 281720Z 27004KT 240V310 CAVOK 05/M04 Q1028 NOSIG RMK WIND 2600FT 21003KT=

TAF

ENTC 281100Z 2812/2912 VRB05KT CAVOK TEMPO 2812/2912 22010KT=

ENAT (16:50 UTC)

Alta flygplats

METAR

ENAT 281650Z 34005KT 9999 FEW022 04/M03 Q1028 RMK WIND 700FT 34006KT=

TAF

ENAT 281700Z 2818/2823 17005KT CAVOK=

ENNA (16:50 UTC)

Lakselv flygplats

METAR

ENNA 281650Z 26008KT CAVOK 04/M06 Q1027 RMK WIND 1800FT 27014KT=

TAF

ENNA 281100Z 2812/2912 VRB05KT 9999 SCT030 TEMPO 2812/2821 27010KT=

ENHF (16:50 UTC)

Hammerfest flygplats

METAR

ENHF 281650Z 24010KT 9999 SCT048 03/M01 Q1026 RMK WIND 1254FT 27017KT=

TAF

ENHF 281700Z 2818/2903 23008KT 9999 SCT020=

ENEK (17:20 UTC)

Ekofisk Oil Platform

METAR

ENEK 281720Z 34011KT 9999 FEW020 06/M00 Q1013 W07/S4=

TAF

TCU

ENEK 281700Z 2818/2903 35015KT 9999 FEW020TCU=

ENKR (17:20 UTC)

Kirkenes Airport, Høybuktmoen

METAR

ENKR 281720Z 27008KT CAVOK 02/M03 Q1027 RMK WIND 731FT 27015KT=

TAF

ENKR 281700Z 2818/2903 27008KT CAVOK=

ENLK (17:20 UTC)

Leknes Airport

METAR

ENLK 281720Z 19005KT CAVOK 05/M05 Q1027=

TAF

Ingen TAF hittades.

ENNO (16:50 UTC)

Notodden Airport, Tuven

METAR

RA

ENNO 281650Z 26003KT 200V010 9000 -RA BKN013 OVC019 03/02 Q1016=

TAF

ENNO ERR 280800Z 2809/2818 NIL DUE TO NO METAR=

ENST (17:20 UTC)

Sandnessjøen Airport, Stokka

METAR

ENST 281720Z 12005KT CAVOK 08/M09 Q1025 RMK WIND 300FT 10008KT=

TAF

Ingen TAF hittades.

ENSB (17:20 UTC)

Svalbard Airport, Longyear

METAR

SN

ENSB 281720Z 22023KT 8000 -SNRA FEW008 BKN014 02/M01 Q1010 RMK WIND 1400FT 23025KT=

TAF

RA

ENSB 281100Z 2812/2912 22015KT 9999 -RASN FEW015 BKN030 TEMPO 2812/2912 25020G30KT 2000 SNRA VV012=

ENSK (16:50 UTC)

Stokmarknes Airport, Skagen

METAR

ENSK 281650Z VRB02KT CAVOK 06/M06 Q1027=

TAF

Ingen TAF hittades.

ENSR (17:20 UTC)

Sørkjosen Airport

METAR

ENSR 281720Z 24005KT CAVOK 03/M05 Q1028 WIND 1119FT VRB02KT=

TAF

Ingen TAF hittades.

ENNM (16:50 UTC)

Namsos Airport, Høknesøra

METAR

ENNM 281650Z 09007KT CAVOK 08/M04 Q1023=

TAF

Ingen TAF hittades.